createdAt,value
2019-04-01T00:01:10.216Z,97.13
2019-04-01T00:03:38.676Z,98.53
2019-04-01T00:06:07.109Z,99.37
2019-04-01T00:08:35.587Z,98.38
2019-04-01T00:11:04.053Z,100.00
2019-04-01T00:13:33.315Z,100.00
2019-04-01T00:16:01.806Z,99.94
2019-04-01T00:18:30.262Z,100.00
2019-04-01T00:20:58.700Z,100.00
2019-04-01T00:23:27.216Z,100.00
2019-04-01T00:25:55.654Z,100.00
2019-04-01T00:28:24.139Z,100.00
2019-04-01T00:30:52.571Z,100.00
2019-04-01T00:33:21.657Z,100.00
2019-04-01T00:35:50.123Z,100.00
2019-04-01T00:38:18.687Z,100.00
2019-04-01T00:40:47.158Z,100.00
2019-04-01T00:43:19.690Z,100.00
2019-04-01T00:45:49.794Z,100.00
2019-04-01T00:48:18.266Z,100.00
2019-04-01T00:50:46.737Z,100.00
2019-04-01T00:53:18.015Z,100.00
2019-04-01T00:55:45.367Z,100.00
2019-04-01T00:58:13.840Z,100.00
2019-04-01T01:00:42.307Z,100.00
2019-04-01T01:03:11.237Z,100.00
2019-04-01T01:05:39.690Z,100.00
2019-04-01T01:08:08.160Z,100.00
2019-04-01T01:10:36.716Z,100.00
2019-04-01T01:13:05.238Z,100.00
2019-04-01T01:15:33.658Z,100.00
2019-04-01T01:18:02.134Z,100.00
2019-04-01T01:20:30.581Z,100.00
2019-04-01T01:22:59.070Z,100.00
2019-04-01T01:25:27.530Z,100.00
2019-04-01T01:27:56.006Z,100.00
2019-04-01T01:30:24.469Z,100.00
2019-04-01T01:32:52.939Z,100.00
2019-04-01T01:35:21.414Z,100.00
2019-04-01T01:37:49.882Z,100.00
2019-04-01T01:40:18.343Z,100.00
2019-04-01T01:42:46.839Z,100.00
2019-04-01T01:45:15.251Z,100.00
2019-04-01T01:47:43.730Z,100.00
2019-04-01T01:50:12.237Z,100.00
2019-04-01T01:52:40.718Z,100.00
2019-04-01T01:55:09.237Z,100.00
2019-04-01T01:57:37.686Z,100.00
2019-04-01T02:00:06.434Z,100.00
2019-04-01T02:02:34.924Z,100.00
2019-04-01T02:05:03.760Z,100.00
2019-04-01T02:07:32.238Z,100.00
2019-04-01T02:10:00.721Z,100.00
2019-04-01T02:12:29.238Z,100.00
2019-04-01T02:14:57.671Z,100.00
2019-04-01T02:17:26.175Z,100.00
2019-04-01T02:19:54.636Z,100.00
2019-04-01T02:22:23.118Z,100.00
2019-04-01T02:24:51.748Z,100.00
2019-04-01T02:27:20.205Z,100.00
2019-04-01T02:29:48.748Z,100.00
2019-04-01T02:32:17.216Z,100.00
2019-04-01T02:34:45.672Z,100.00
2019-04-01T02:37:14.186Z,100.00
2019-04-01T02:39:42.670Z,100.00
2019-04-01T02:42:11.129Z,100.00
2019-04-01T02:44:39.631Z,100.00
2019-04-01T02:47:08.108Z,100.00
2019-04-01T02:49:36.560Z,100.00
2019-04-01T02:52:05.111Z,100.00
2019-04-01T02:54:33.549Z,100.00
2019-04-01T02:57:02.029Z,100.00
2019-04-01T02:59:30.482Z,100.00
2019-04-01T03:01:58.964Z,100.00
2019-04-01T03:04:27.413Z,100.00
2019-04-01T03:06:55.899Z,100.00
2019-04-01T03:09:24.346Z,100.00
2019-04-01T03:11:52.851Z,100.00
2019-04-01T03:14:21.290Z,100.00
2019-04-01T03:16:49.843Z,100.00
2019-04-01T03:19:18.293Z,100.00
2019-04-01T03:21:46.781Z,100.00
2019-04-01T03:24:15.226Z,100.00
2019-04-01T03:26:43.713Z,100.00
2019-04-01T03:29:12.163Z,100.00
2019-04-01T03:31:40.657Z,100.00
2019-04-01T03:34:09.096Z,100.00
2019-04-01T03:36:37.597Z,100.00
2019-04-01T03:39:06.522Z,100.00
2019-04-01T03:41:35.015Z,100.00
2019-04-01T03:44:03.477Z,100.00
2019-04-01T03:46:31.964Z,100.00
2019-04-01T03:49:00.468Z,100.00
2019-04-01T03:51:28.924Z,100.00
2019-04-01T03:53:57.416Z,100.00
2019-04-01T03:56:25.905Z,100.00
2019-04-01T03:58:54.344Z,100.00
2019-04-01T04:01:22.869Z,100.00
2019-04-01T04:03:51.305Z,100.00
2019-04-01T04:06:19.848Z,100.00
2019-04-01T04:08:48.310Z,100.00
2019-04-01T04:11:16.802Z,100.00
2019-04-01T04:13:45.251Z,100.00
2019-04-01T04:16:13.900Z,100.00
2019-04-01T04:18:42.337Z,100.00
2019-04-01T04:21:10.830Z,100.00
2019-04-01T04:23:39.270Z,100.00
2019-04-01T04:26:07.776Z,100.00
2019-04-01T04:28:36.226Z,100.00
2019-04-01T04:31:04.714Z,100.00
2019-04-01T04:33:33.197Z,100.00
2019-04-01T04:36:01.687Z,100.00
2019-04-01T04:38:30.123Z,100.00
2019-04-01T04:40:58.609Z,100.00
2019-04-01T04:43:27.049Z,100.00
2019-04-01T04:45:55.545Z,100.00
2019-04-01T04:48:23.984Z,100.00
2019-04-01T04:50:52.552Z,100.00
2019-04-01T04:53:21.009Z,100.00
2019-04-01T04:55:49.505Z,100.00
2019-04-01T04:58:17.944Z,100.00
2019-04-01T05:00:46.397Z,100.00
2019-04-01T05:03:14.878Z,100.00
2019-04-01T05:05:43.366Z,100.00
2019-04-01T05:08:11.837Z,100.00
2019-04-01T05:10:40.310Z,100.00
2019-04-01T05:13:08.767Z,100.00
2019-04-01T05:15:37.360Z,100.00
2019-04-01T05:18:05.840Z,100.00
2019-04-01T05:20:35.082Z,100.00
2019-04-01T05:23:03.661Z,100.00
2019-04-01T05:25:32.247Z,100.00
2019-04-01T05:28:02.369Z,100.00
2019-04-01T05:30:32.126Z,100.00
2019-04-01T05:33:01.279Z,100.00
2019-04-01T05:35:33.304Z,100.00
2019-04-01T05:38:01.803Z,100.00
2019-04-01T05:40:30.452Z,100.00
2019-04-01T05:42:59.332Z,100.00
2019-04-01T05:45:27.955Z,100.00
2019-04-01T05:47:56.751Z,100.00
2019-04-01T05:50:25.364Z,100.00
2019-04-01T05:52:53.866Z,100.00
2019-04-01T05:55:22.369Z,100.00
2019-04-01T05:57:50.803Z,100.00
2019-04-01T06:00:23.784Z,100.00
2019-04-01T06:02:52.780Z,100.00
2019-04-01T06:05:21.237Z,100.00
2019-04-01T06:07:49.800Z,100.00
2019-04-01T06:10:18.313Z,100.00
2019-04-01T06:12:46.895Z,100.00
2019-04-01T06:15:15.400Z,100.00
2019-04-01T06:17:43.944Z,100.00
2019-04-01T06:20:12.452Z,96.90
2019-04-01T06:22:40.930Z,94.42
2019-04-01T06:25:09.774Z,93.19
2019-04-01T06:27:38.227Z,91.46
2019-04-01T06:30:07.731Z,90.08
2019-04-01T06:32:36.196Z,88.06
2019-04-01T06:35:05.865Z,87.80
2019-04-01T06:37:34.491Z,85.17
2019-04-01T06:40:03.538Z,83.66
2019-04-01T06:42:32.031Z,80.80
2019-04-01T06:45:00.607Z,79.92
2019-04-01T06:47:29.838Z,80.11
2019-04-01T06:49:58.544Z,77.02
2019-04-01T06:52:27.005Z,73.66
2019-04-01T06:54:55.466Z,75.43
2019-04-01T06:57:23.959Z,74.54
2019-04-01T06:59:52.434Z,73.62
2019-04-01T07:02:20.886Z,73.08
2019-04-01T07:04:49.341Z,72.83
2019-04-01T07:07:19.505Z,70.90
2019-04-01T07:09:50.657Z,71.49
2019-04-01T07:12:18.426Z,70.64
2019-04-01T07:14:46.871Z,69.02
2019-04-01T07:17:15.321Z,67.57
2019-04-01T07:19:43.779Z,68.66
2019-04-01T07:22:12.295Z,67.95
2019-04-01T07:24:40.884Z,68.60
2019-04-01T07:27:09.341Z,67.84
2019-04-01T07:29:37.875Z,66.28
2019-04-01T07:32:06.330Z,65.94
2019-04-01T07:34:34.786Z,65.56
2019-04-01T07:37:03.241Z,63.91
2019-04-01T07:39:31.699Z,64.31
2019-04-01T07:42:00.174Z,64.23
2019-04-01T07:44:28.685Z,63.46
2019-04-01T07:46:57.154Z,62.60
2019-04-01T07:49:25.716Z,61.34
2019-04-01T07:51:54.246Z,61.45
2019-04-01T07:54:22.665Z,60.09
2019-04-01T07:56:51.157Z,59.41
2019-04-01T07:59:19.594Z,58.11
2019-04-01T08:01:48.132Z,57.40
2019-04-01T08:04:16.625Z,57.56
2019-04-01T08:06:45.165Z,57.55
2019-04-01T08:09:13.615Z,59.55
2019-04-01T08:11:42.098Z,56.94
2019-04-01T08:14:10.539Z,57.08
2019-04-01T08:16:39.122Z,56.55
2019-04-01T08:19:07.578Z,55.28
2019-04-01T08:21:36.050Z,55.44
2019-04-01T08:24:04.775Z,55.23
2019-04-01T08:26:33.327Z,54.62
2019-04-01T08:29:01.869Z,54.61
2019-04-01T08:31:30.362Z,53.94
2019-04-01T08:33:58.884Z,54.33
2019-04-01T08:36:27.416Z,53.33
2019-04-01T08:38:55.892Z,52.20
2019-04-01T08:41:24.318Z,52.37
2019-04-01T08:43:52.868Z,52.35
2019-04-01T08:46:21.290Z,50.95
2019-04-01T08:48:49.956Z,51.67
2019-04-01T08:51:18.383Z,51.67
2019-04-01T08:53:46.873Z,51.75
2019-04-01T08:56:15.273Z,51.26
2019-04-01T08:58:43.742Z,51.80
2019-04-01T09:01:12.220Z,51.55
2019-04-01T09:03:40.768Z,50.71
2019-04-01T09:06:09.357Z,51.09
2019-04-01T09:08:38.005Z,51.07
2019-04-01T09:11:06.473Z,50.14
2019-04-01T09:13:34.988Z,50.56
2019-04-01T09:16:04.005Z,52.02
2019-04-01T09:18:32.535Z,50.47
2019-04-01T09:21:00.988Z,51.07
2019-04-01T09:23:29.433Z,49.53
2019-04-01T09:25:57.894Z,48.49
2019-04-01T09:28:26.342Z,48.81
2019-04-01T09:30:54.786Z,49.23
2019-04-01T09:33:23.245Z,49.90
2019-04-01T09:35:51.686Z,49.33
2019-04-01T09:38:20.137Z,48.01
2019-04-01T09:40:48.637Z,46.95
2019-04-01T09:43:17.462Z,48.24
2019-04-01T09:45:45.898Z,46.14
2019-04-01T09:48:14.380Z,46.34
2019-04-01T09:50:42.810Z,45.94
2019-04-01T09:53:11.322Z,47.81
2019-04-01T09:55:39.765Z,46.75
2019-04-01T09:58:08.234Z,47.52
2019-04-01T10:00:36.683Z,46.47
2019-04-01T10:03:05.160Z,47.79
2019-04-01T10:05:33.659Z,46.28
2019-04-01T10:08:02.126Z,46.56
2019-04-01T10:10:30.553Z,46.48
2019-04-01T10:12:59.036Z,44.70
2019-04-01T10:15:27.465Z,45.64
2019-04-01T10:17:55.934Z,44.92
2019-04-01T10:20:24.429Z,44.52
2019-04-01T10:22:52.952Z,44.64
2019-04-01T10:25:21.472Z,44.53
2019-04-01T10:27:50.170Z,43.82
2019-04-01T10:30:18.878Z,44.02
2019-04-01T10:32:47.357Z,43.87
2019-04-01T10:35:15.864Z,44.14
2019-04-01T10:37:44.330Z,42.69
2019-04-01T10:40:13.467Z,42.63
2019-04-01T10:42:41.943Z,42.80
2019-04-01T10:45:10.651Z,42.62
2019-04-01T10:47:39.220Z,41.85
2019-04-01T10:50:09.486Z,39.24
2019-04-01T10:52:37.936Z,41.10
2019-04-01T10:55:06.861Z,39.95
2019-04-01T10:57:35.450Z,39.82
2019-04-01T11:00:08.988Z,39.71
2019-04-01T11:02:37.484Z,37.63
2019-04-01T11:05:08.771Z,39.06
2019-04-01T11:07:37.559Z,39.97
2019-04-01T11:10:11.056Z,39.23
2019-04-01T11:12:38.043Z,37.42
2019-04-01T11:15:07.608Z,37.01
2019-04-01T11:17:36.085Z,35.62
2019-04-01T11:20:05.662Z,34.53
2019-04-01T11:22:34.166Z,31.44
2019-04-01T11:25:02.783Z,31.25
2019-04-01T11:27:31.256Z,29.91
2019-04-01T11:29:59.706Z,30.59
2019-04-01T11:32:28.206Z,32.51
2019-04-01T11:34:56.696Z,30.71
2019-04-01T11:37:25.221Z,29.84
2019-04-01T11:39:53.655Z,28.15
2019-04-01T11:42:23.061Z,27.46
2019-04-01T11:44:52.543Z,28.26
2019-04-01T11:47:22.259Z,27.92
2019-04-01T11:49:50.921Z,27.26
2019-04-01T11:52:20.915Z,30.02
2019-04-01T11:54:50.655Z,29.56
2019-04-01T11:57:19.123Z,28.70
2019-04-01T11:59:47.571Z,27.61
2019-04-01T12:02:16.627Z,30.07
2019-04-01T12:04:46.309Z,28.15
2019-04-01T12:07:14.831Z,27.87
2019-04-01T12:09:43.284Z,26.80
2019-04-01T12:12:22.846Z,24.98
2019-04-01T12:14:41.914Z,26.32
2019-04-01T12:17:10.392Z,25.80
2019-04-01T12:19:40.089Z,25.74
2019-04-01T12:22:08.902Z,26.15
2019-04-01T12:24:37.456Z,26.75
2019-04-01T12:27:05.920Z,27.00
2019-04-01T12:29:34.377Z,26.40
2019-04-01T12:32:02.928Z,25.86
2019-04-01T12:34:31.670Z,25.53
2019-04-01T12:37:00.164Z,25.66
2019-04-01T12:39:28.615Z,23.24
2019-04-01T12:41:57.112Z,25.67
2019-04-01T12:44:25.682Z,23.76
2019-04-01T12:46:54.139Z,22.62
2019-04-01T12:49:22.623Z,23.44
2019-04-01T12:51:51.088Z,22.61
2019-04-01T12:54:19.523Z,22.73
2019-04-01T12:56:48.030Z,23.71
2019-04-01T12:59:16.477Z,23.12
2019-04-01T13:01:44.972Z,24.73
2019-04-01T13:04:13.406Z,23.08
2019-04-01T13:06:41.874Z,23.95
2019-04-01T13:09:10.381Z,23.91
2019-04-01T13:11:38.860Z,22.21
2019-04-01T13:14:07.295Z,21.88
2019-04-01T13:16:35.814Z,21.40
2019-04-01T13:19:04.264Z,21.38
2019-04-01T13:21:34.611Z,21.96
2019-04-01T13:24:02.939Z,23.69
2019-04-01T13:26:31.497Z,21.39
2019-04-01T13:28:59.927Z,20.76
2019-04-01T13:31:28.418Z,20.39
2019-04-01T13:33:56.885Z,21.65
2019-04-01T13:36:25.362Z,22.96
2019-04-01T13:38:53.870Z,22.27
2019-04-01T13:41:25.073Z,21.92
2019-04-01T13:43:53.042Z,21.11
2019-04-01T13:46:21.493Z,22.70
2019-04-01T13:48:57.441Z,21.76
2019-04-01T13:51:20.117Z,21.04
2019-04-01T13:53:48.586Z,20.70
2019-04-01T13:56:17.067Z,22.65
2019-04-01T13:58:45.546Z,22.62
2019-04-01T14:01:14.001Z,23.74
2019-04-01T14:03:42.479Z,23.14
2019-04-01T14:06:10.942Z,23.58
2019-04-01T14:08:39.401Z,24.23
2019-04-01T14:11:08.028Z,22.81
2019-04-01T14:13:36.498Z,23.16
2019-04-01T14:16:04.975Z,21.80
2019-04-01T14:18:33.411Z,27.74
2019-04-01T14:21:15.281Z,28.54
2019-04-01T14:23:32.037Z,30.40
2019-04-01T14:26:00.541Z,32.05
2019-04-01T14:28:29.039Z,33.93
2019-04-01T14:30:57.520Z,33.49
2019-04-01T14:33:25.973Z,33.51
2019-04-01T14:35:54.481Z,32.68
2019-04-01T14:38:22.945Z,33.63
2019-04-01T14:40:51.434Z,34.23
2019-04-01T14:43:19.870Z,33.98
2019-04-01T14:45:48.391Z,32.95
2019-04-01T14:48:16.819Z,34.22
2019-04-01T14:50:45.296Z,33.25
2019-04-01T14:53:13.764Z,34.11
2019-04-01T14:55:42.260Z,33.32
2019-04-01T14:58:10.829Z,33.42
2019-04-01T15:00:42.521Z,33.18
2019-04-01T15:03:15.971Z,33.71
2019-04-01T15:05:46.258Z,33.68
2019-04-01T15:08:15.175Z,34.76
2019-04-01T15:10:45.319Z,34.53
2019-04-01T15:13:13.870Z,34.33
2019-04-01T15:15:43.339Z,34.71
2019-04-01T15:18:16.524Z,34.79
2019-04-01T15:20:50.055Z,33.85
2019-04-01T15:23:20.256Z,34.31
2019-04-01T15:25:48.727Z,35.21
2019-04-01T15:28:17.262Z,35.29
2019-04-01T15:30:45.718Z,36.17
2019-04-01T15:33:14.204Z,35.67
2019-04-01T15:35:42.665Z,35.00
2019-04-01T15:38:11.138Z,34.00
2019-04-01T15:40:39.613Z,34.96
2019-04-01T15:43:08.137Z,34.71
2019-04-01T15:45:36.589Z,35.25
2019-04-01T15:48:05.080Z,34.64
2019-04-01T15:50:33.577Z,34.50
2019-04-01T15:53:02.113Z,34.54
2019-04-01T15:55:31.611Z,35.78
2019-04-01T15:58:00.193Z,34.98
2019-04-01T16:00:28.801Z,35.62
2019-04-01T16:02:57.292Z,35.55
2019-04-01T16:05:25.822Z,35.44
2019-04-01T16:07:54.287Z,35.13
2019-04-01T16:10:22.825Z,35.12
2019-04-01T16:12:51.304Z,35.17
2019-04-01T16:15:19.744Z,34.95
2019-04-01T16:17:48.286Z,35.11
2019-04-01T16:20:16.816Z,35.08
2019-04-01T16:22:45.314Z,35.17
2019-04-01T16:25:13.848Z,35.73
2019-04-01T16:27:43.026Z,36.10
2019-04-01T16:30:11.791Z,35.61
2019-04-01T16:32:40.410Z,35.66
2019-04-01T16:35:09.092Z,36.25
2019-04-01T16:37:37.590Z,35.93
2019-04-01T16:40:06.413Z,36.04
2019-04-01T16:42:34.906Z,35.96
2019-04-01T16:45:04.868Z,36.43
2019-04-01T16:47:33.370Z,37.84
2019-04-01T16:50:01.840Z,37.29
2019-04-01T16:52:30.563Z,38.22
2019-04-01T16:54:59.659Z,38.05
2019-04-01T16:57:28.193Z,38.37
2019-04-01T16:59:57.130Z,38.73
2019-04-01T17:02:25.770Z,38.75
2019-04-01T17:04:54.247Z,38.70
2019-04-01T17:07:22.802Z,38.66
2019-04-01T17:09:51.308Z,38.02
2019-04-01T17:12:19.762Z,38.32
2019-04-01T17:14:48.237Z,38.05
2019-04-01T17:17:16.722Z,37.98
2019-04-01T17:19:45.209Z,39.18
2019-04-01T17:22:13.683Z,38.52
2019-04-01T17:24:42.209Z,39.35
2019-04-01T17:27:11.912Z,38.86
2019-04-01T17:29:42.520Z,40.12
2019-04-01T17:32:11.107Z,40.14
2019-04-01T17:34:39.595Z,40.23
2019-04-01T17:37:08.281Z,38.98
2019-04-01T17:39:37.578Z,38.73
2019-04-01T17:42:06.161Z,38.91
2019-04-01T17:44:34.597Z,39.57
2019-04-01T17:47:03.173Z,38.02
2019-04-01T17:49:31.589Z,37.77
2019-04-01T17:52:00.076Z,38.43
2019-04-01T17:54:28.530Z,38.54
2019-04-01T17:56:57.056Z,39.12
2019-04-01T17:59:25.494Z,39.69
2019-04-01T18:01:56.890Z,38.96
2019-04-01T18:04:24.255Z,40.50
2019-04-01T18:06:52.804Z,40.09
2019-04-01T18:09:21.257Z,39.82
2019-04-01T18:11:49.756Z,40.01
2019-04-01T18:14:19.280Z,40.30
2019-04-01T18:16:48.111Z,40.15
2019-04-01T18:19:16.585Z,40.16
2019-04-01T18:21:45.066Z,40.65
2019-04-01T18:24:13.625Z,39.81
2019-04-01T18:26:42.101Z,39.85
2019-04-01T18:29:10.561Z,39.94
2019-04-01T18:31:39.114Z,41.35
2019-04-01T18:34:07.641Z,42.08
2019-04-01T18:36:38.778Z,40.61
2019-04-01T18:39:08.704Z,40.88
2019-04-01T18:41:37.247Z,41.48
2019-04-01T18:44:06.229Z,41.64
2019-04-01T18:46:34.830Z,42.08
2019-04-01T18:49:03.623Z,42.45
2019-04-01T18:51:32.136Z,42.21
2019-04-01T18:54:00.695Z,41.90
2019-04-01T18:56:29.477Z,41.39
2019-04-01T18:58:58.021Z,41.08
2019-04-01T19:01:26.564Z,42.05
2019-04-01T19:03:55.079Z,40.87
2019-04-01T19:06:23.597Z,40.92
2019-04-01T19:08:52.108Z,41.41
2019-04-01T19:11:20.542Z,40.98
2019-04-01T19:13:49.136Z,41.00
2019-04-01T19:16:17.582Z,40.79
2019-04-01T19:18:46.116Z,40.30
2019-04-01T19:21:14.549Z,40.53
2019-04-01T19:23:43.059Z,40.16
2019-04-01T19:26:11.483Z,41.01
2019-04-01T19:28:39.966Z,40.35
2019-04-01T19:31:08.420Z,40.85
2019-04-01T19:33:38.069Z,41.11
2019-04-01T19:36:06.675Z,41.33
2019-04-01T19:38:35.170Z,41.71
2019-04-01T19:41:03.608Z,41.33
2019-04-01T19:43:32.090Z,42.30
2019-04-01T19:46:00.527Z,41.96
2019-04-01T19:48:29.008Z,42.30
2019-04-01T19:50:59.081Z,43.06
2019-04-01T19:53:27.867Z,43.20
2019-04-01T19:55:56.307Z,43.01
2019-04-01T19:58:25.538Z,42.95
2019-04-01T20:00:54.425Z,43.70
2019-04-01T20:03:22.952Z,44.34
2019-04-01T20:05:51.388Z,44.26
2019-04-01T20:08:19.941Z,44.84
2019-04-01T20:10:48.427Z,44.73
2019-04-01T20:13:16.933Z,44.33
2019-04-01T20:15:45.452Z,44.31
2019-04-01T20:18:13.931Z,44.70
2019-04-01T20:20:42.439Z,45.31
2019-04-01T20:23:10.915Z,45.97
2019-04-01T20:25:39.357Z,46.05
2019-04-01T20:28:07.891Z,46.12
2019-04-01T20:30:37.931Z,46.23
2019-04-01T20:33:16.986Z,46.29
2019-04-01T20:35:36.638Z,47.73
2019-04-01T20:38:05.190Z,47.40
2019-04-01T20:40:33.633Z,47.61
2019-04-01T20:43:02.107Z,47.62
2019-04-01T20:45:30.614Z,48.01
2019-04-01T20:47:59.083Z,47.80
2019-04-01T20:50:28.147Z,48.57
2019-04-01T20:52:56.989Z,48.58
2019-04-01T20:55:25.422Z,48.95
2019-04-01T20:57:53.908Z,48.63
2019-04-01T21:00:22.377Z,48.87
2019-04-01T21:02:50.864Z,49.60
2019-04-01T21:05:19.373Z,49.06
2019-04-01T21:07:47.936Z,49.60
2019-04-01T21:10:16.639Z,50.36
2019-04-01T21:12:45.187Z,50.03
2019-04-01T21:15:13.705Z,50.47
2019-04-01T21:17:42.196Z,50.65
2019-04-01T21:20:10.852Z,50.35
2019-04-01T21:22:39.311Z,50.00
2019-04-01T21:25:07.889Z,50.48
2019-04-01T21:27:36.353Z,50.51
2019-04-01T21:30:11.095Z,51.28
2019-04-01T21:32:39.556Z,50.38
2019-04-01T21:35:09.076Z,50.64
2019-04-01T21:37:37.907Z,50.27
2019-04-01T21:40:07.605Z,50.39
2019-04-01T21:42:36.250Z,50.35
2019-04-01T21:45:07.044Z,50.98
2019-04-01T21:47:35.501Z,51.21
2019-04-01T21:50:06.468Z,51.34
2019-04-01T21:52:35.366Z,51.19
2019-04-01T21:55:07.721Z,51.34
2019-04-01T21:57:34.917Z,51.32
2019-04-01T22:00:04.542Z,51.65
2019-04-01T22:02:36.128Z,52.24
2019-04-01T22:05:03.206Z,51.91
2019-04-01T22:07:31.677Z,52.61
2019-04-01T22:10:00.128Z,52.54
2019-04-01T22:12:28.608Z,51.95
2019-04-01T22:14:57.060Z,52.12
2019-04-01T22:17:25.511Z,52.65
2019-04-01T22:19:53.956Z,51.96
2019-04-01T22:22:22.474Z,51.48
2019-04-01T22:24:50.917Z,52.10
2019-04-01T22:27:19.367Z,52.66
2019-04-01T22:29:48.137Z,52.32
2019-04-01T22:32:17.359Z,52.06
2019-04-01T22:34:45.809Z,52.07
2019-04-01T22:37:26.431Z,52.33
2019-04-01T22:39:45.541Z,52.43
2019-04-01T22:42:14.054Z,52.72
2019-04-01T22:44:42.549Z,52.19
2019-04-01T22:47:10.999Z,51.70
2019-04-01T22:49:41.132Z,52.05
2019-04-01T22:52:10.593Z,51.99
2019-04-01T22:54:39.120Z,51.69
2019-04-01T22:57:07.565Z,52.14
2019-04-01T22:59:36.035Z,52.58
2019-04-01T23:02:04.663Z,52.08
2019-04-01T23:04:33.153Z,52.04
2019-04-01T23:07:01.610Z,52.46
2019-04-01T23:09:30.038Z,52.16
2019-04-01T23:11:58.522Z,52.31
2019-04-01T23:14:26.997Z,53.26
2019-04-01T23:16:55.537Z,52.67
2019-04-01T23:19:23.958Z,52.57
2019-04-01T23:21:52.428Z,52.09
2019-04-01T23:24:20.875Z,52.46
2019-04-01T23:26:49.349Z,52.97
2019-04-01T23:29:17.830Z,52.48
2019-04-01T23:31:47.199Z,52.72
2019-04-01T23:34:15.921Z,52.89
2019-04-01T23:36:44.465Z,53.40
2019-04-01T23:39:12.893Z,52.80
2019-04-01T23:41:41.369Z,53.24
2019-04-01T23:44:09.828Z,53.32
2019-04-01T23:46:38.292Z,53.49
2019-04-01T23:49:06.730Z,53.29
2019-04-01T23:51:36.232Z,53.33
2019-04-01T23:54:05.071Z,54.16
2019-04-01T23:56:33.551Z,53.69
2019-04-01T23:59:01.992Z,53.07
